Airfield :
LOGIN :

Register | Disclaimer

   EN    FR    IT 

 










Legend :    VFR   Marginal VFR   IFR   Intensive IFR   Very Intensive IFR
Visi :
Ceiling :
>= 8 km
>= 3000ft
5 to 8 km
1000 to 3000 ft
1500m to 5 km
500 to 1000 ft
800 to 1500m
200 to 500 ft
< 800m
< 200 ft
Symbols :   Thunderstorms  Fog  Heavy snow  Heavy precipitations  Wind > 20 kt
SIGMETs :     Misc.  Thunderstorms  Icing  Turbulence  Mountain Waves  Volcanic Ashes







- Airport Elevation : 1036 ft
- IATA code : CLJ


LRCL - Cluj-Napoca International

CURRENT METAR :
  • 201830Z 04003KT 010V080 9999 SCT061 M02/M04 Q1011

EXPIRED METARs :
  • 201800Z 01004KT CAVOK M02/M04 Q1011
  • 201730Z 01004KT 9999 FEW022 M02/M04 Q1011
  • 201700Z 00000KT 9999 FEW022 M01/M03 Q1011
  • 201630Z 00000KT 9999 FEW020 M01/M03 Q1011
  • 201600Z VRB02KT CAVOK M00/M02 Q1011

TAF TAF LRCL
Valid from the 20 at 18:00 until the 21 at 03:00 UTC


201700Z 2018/2103 VRB04KT CAVOK
BECMG 2019/2021 5000 BR BKN010
PROB30
TEMPO 2021/2103 1500 BR BKN005
No reported NOTAMs for that airfield.



MET'MAP, your aeronautical weather chart ! - Copyright ORBIFLY December 2007 - Disclaimer

ORBIFLY MET'MAP TEAM :

Programming & Development : Alexandra Zaïnal
Concept & Development : Baudouin d'Aumeries
Co-Development & Prog : Marc-Olivier Méhu
Technical & hardware support : Manuel Goepfert

Contact : metmap@orbifly.com




SOURCES & CREDITS :

   NOAA